sensor_id;sensor_type;location;lat;lon;timestamp;P1;durP1;ratioP1;P2;durP2;ratioP2
47844;SDS011;33605;48.822;8.796;2023-07-29T00:02:10;1.40;;;1.30;;
47844;SDS011;33605;48.822;8.796;2023-07-29T00:04:36;4.80;;;1.20;;
47844;SDS011;33605;48.822;8.796;2023-07-29T00:07:02;1.20;;;1.10;;
47844;SDS011;33605;48.822;8.796;2023-07-29T00:09:28;1.97;;;1.20;;
47844;SDS011;33605;48.822;8.796;2023-07-29T00:11:54;4.00;;;1.30;;
47844;SDS011;33605;48.822;8.796;2023-07-29T00:14:20;1.50;;;1.40;;
47844;SDS011;33605;48.822;8.796;2023-07-29T00:16:46;1.70;;;1.60;;
47844;SDS011;33605;48.822;8.796;2023-07-29T00:19:12;1.20;;;1.10;;
47844;SDS011;33605;48.822;8.796;2023-07-29T00:21:38;1.40;;;1.30;;
47844;SDS011;33605;48.822;8.796;2023-07-29T00:24:04;4.97;;;1.60;;
47844;SDS011;33605;48.822;8.796;2023-07-29T00:26:30;2.33;;;1.40;;
47844;SDS011;33605;48.822;8.796;2023-07-29T00:28:57;3.10;;;1.40;;
47844;SDS011;33605;48.822;8.796;2023-07-29T00:31:23;1.30;;;1.20;;
47844;SDS011;33605;48.822;8.796;2023-07-29T00:33:49;1.90;;;1.40;;
47844;SDS011;33605;48.822;8.796;2023-07-29T00:36:15;1.70;;;1.60;;
47844;SDS011;33605;48.822;8.796;2023-07-29T00:38:41;1.70;;;1.50;;
47844;SDS011;33605;48.822;8.796;2023-07-29T00:41:07;3.87;;;1.30;;
47844;SDS011;33605;48.822;8.796;2023-07-29T00:43:33;2.50;;;1.60;;
47844;SDS011;33605;48.822;8.796;2023-07-29T00:45:59;1.57;;;1.43;;
47844;SDS011;33605;48.822;8.796;2023-07-29T00:48:26;2.70;;;1.70;;
47844;SDS011;33605;48.822;8.796;2023-07-29T00:50:52;4.37;;;1.50;;
47844;SDS011;33605;48.822;8.796;2023-07-29T00:53:18;1.70;;;1.60;;
47844;SDS011;33605;48.822;8.796;2023-07-29T00:55:44;1.67;;;1.57;;
47844;SDS011;33605;48.822;8.796;2023-07-29T00:58:10;4.00;;;1.37;;
47844;SDS011;33605;48.822;8.796;2023-07-29T01:00:36;1.30;;;1.20;;
47844;SDS011;33605;48.822;8.796;2023-07-29T01:03:02;1.60;;;1.50;;
47844;SDS011;33605;48.822;8.796;2023-07-29T01:08:51;1.90;;;1.40;;
47844;SDS011;33605;48.822;8.796;2023-07-29T01:11:24;1.87;;;1.60;;
47844;SDS011;33605;48.822;8.796;2023-07-29T01:13:58;1.70;;;1.60;;
47844;SDS011;33605;48.822;8.796;2023-07-29T01:16:31;2.43;;;1.73;;
47844;SDS011;33605;48.822;8.796;2023-07-29T01:18:58;1.63;;;1.53;;
47844;SDS011;33605;48.822;8.796;2023-07-29T01:21:27;1.90;;;1.43;;
47844;SDS011;33605;48.822;8.796;2023-07-29T01:23:53;1.70;;;1.60;;
47844;SDS011;33605;48.822;8.796;2023-07-29T01:26:24;2.90;;;1.83;;
47844;SDS011;33605;48.822;8.796;2023-07-29T01:28:50;1.53;;;1.40;;
47844;SDS011;33605;48.822;8.796;2023-07-29T01:31:17;1.97;;;1.80;;
47844;SDS011;33605;48.822;8.796;2023-07-29T01:33:48;2.00;;;1.50;;
47844;SDS011;33605;48.822;8.796;2023-07-29T01:36:20;1.80;;;1.60;;
47844;SDS011;33605;48.822;8.796;2023-07-29T01:38:50;1.50;;;1.33;;
47844;SDS011;33605;48.822;8.796;2023-07-29T01:41:17;2.03;;;1.60;;
47844;SDS011;33605;48.822;8.796;2023-07-29T01:43:44;1.93;;;1.83;;
47844;SDS011;33605;48.822;8.796;2023-07-29T01:46:11;1.77;;;1.50;;
47844;SDS011;33605;48.822;8.796;2023-07-29T01:48:37;1.43;;;1.33;;
47844;SDS011;33605;48.822;8.796;2023-07-29T01:51:04;2.27;;;1.50;;
47844;SDS011;33605;48.822;8.796;2023-07-29T01:53:30;1.70;;;1.60;;
47844;SDS011;33605;48.822;8.796;2023-07-29T01:55:56;2.93;;;1.60;;
47844;SDS011;33605;48.822;8.796;2023-07-29T01:58:22;2.07;;;1.73;;
47844;SDS011;33605;48.822;8.796;2023-07-29T02:00:48;1.93;;;1.70;;
47844;SDS011;33605;48.822;8.796;2023-07-29T02:03:14;1.67;;;1.57;;
47844;SDS011;33605;48.822;8.796;2023-07-29T02:05:40;1.73;;;1.63;;
47844;SDS011;33605;48.822;8.796;2023-07-29T02:08:08;2.30;;;1.50;;
47844;SDS011;33605;48.822;8.796;2023-07-29T02:10:34;1.93;;;1.77;;
47844;SDS011;33605;48.822;8.796;2023-07-29T02:13:00;2.33;;;1.50;;
47844;SDS011;33605;48.822;8.796;2023-07-29T02:15:26;1.70;;;1.60;;
47844;SDS011;33605;48.822;8.796;2023-07-29T02:17:54;2.47;;;1.80;;
47844;SDS011;33605;48.822;8.796;2023-07-29T02:20:20;1.60;;;1.50;;
47844;SDS011;33605;48.822;8.796;2023-07-29T02:22:46;1.40;;;1.30;;
47844;SDS011;33605;48.822;8.796;2023-07-29T02:25:13;3.00;;;1.53;;
47844;SDS011;33605;48.822;8.796;2023-07-29T02:27:40;1.70;;;1.43;;
47844;SDS011;33605;48.822;8.796;2023-07-29T02:30:06;2.37;;;1.77;;
47844;SDS011;33605;48.822;8.796;2023-07-29T02:32:34;7.80;;;1.57;;
47844;SDS011;33605;48.822;8.796;2023-07-29T02:35:00;2.10;;;1.70;;
47844;SDS011;33605;48.822;8.796;2023-07-29T02:37:26;1.80;;;1.70;;
47844;SDS011;33605;48.822;8.796;2023-07-29T02:39:52;1.90;;;1.70;;
47844;SDS011;33605;48.822;8.796;2023-07-29T02:42:18;3.63;;;1.73;;
47844;SDS011;33605;48.822;8.796;2023-07-29T02:44:44;3.03;;;1.50;;
47844;SDS011;33605;48.822;8.796;2023-07-29T02:47:10;2.53;;;1.80;;
47844;SDS011;33605;48.822;8.796;2023-07-29T02:49:36;1.70;;;1.60;;
47844;SDS011;33605;48.822;8.796;2023-07-29T02:52:02;1.80;;;1.47;;
47844;SDS011;33605;48.822;8.796;2023-07-29T02:54:28;4.47;;;1.87;;
47844;SDS011;33605;48.822;8.796;2023-07-29T02:56:54;1.77;;;1.67;;
47844;SDS011;33605;48.822;8.796;2023-07-29T02:59:20;1.73;;;1.57;;
47844;SDS011;33605;48.822;8.796;2023-07-29T03:01:46;1.67;;;1.57;;
47844;SDS011;33605;48.822;8.796;2023-07-29T03:04:12;1.77;;;1.60;;
47844;SDS011;33605;48.822;8.796;2023-07-29T03:06:38;1.77;;;1.67;;
47844;SDS011;33605;48.822;8.796;2023-07-29T03:09:04;1.53;;;1.43;;
47844;SDS011;33605;48.822;8.796;2023-07-29T03:11:30;2.03;;;1.77;;
47844;SDS011;33605;48.822;8.796;2023-07-29T03:13:56;1.47;;;1.30;;
47844;SDS011;33605;48.822;8.796;2023-07-29T03:16:22;1.80;;;1.70;;
47844;SDS011;33605;48.822;8.796;2023-07-29T03:18:49;1.70;;;1.60;;
47844;SDS011;33605;48.822;8.796;2023-07-29T03:21:15;1.70;;;1.60;;
47844;SDS011;33605;48.822;8.796;2023-07-29T03:23:41;3.47;;;1.90;;
47844;SDS011;33605;48.822;8.796;2023-07-29T03:26:07;1.63;;;1.53;;
47844;SDS011;33605;48.822;8.796;2023-07-29T03:28:36;1.70;;;1.60;;
47844;SDS011;33605;48.822;8.796;2023-07-29T03:31:02;1.87;;;1.53;;
47844;SDS011;33605;48.822;8.796;2023-07-29T03:33:28;1.70;;;1.60;;
47844;SDS011;33605;48.822;8.796;2023-07-29T03:35:54;2.50;;;1.60;;
47844;SDS011;33605;48.822;8.796;2023-07-29T03:38:20;1.70;;;1.60;;
47844;SDS011;33605;48.822;8.796;2023-07-29T03:40:47;6.20;;;1.63;;
47844;SDS011;33605;48.822;8.796;2023-07-29T03:43:13;1.73;;;1.50;;
47844;SDS011;33605;48.822;8.796;2023-07-29T03:45:39;1.63;;;1.50;;
47844;SDS011;33605;48.822;8.796;2023-07-29T03:48:05;1.70;;;1.60;;
47844;SDS011;33605;48.822;8.796;2023-07-29T03:50:32;1.80;;;1.67;;
47844;SDS011;33605;48.822;8.796;2023-07-29T03:52:58;1.57;;;1.47;;
47844;SDS011;33605;48.822;8.796;2023-07-29T03:55:24;1.57;;;1.47;;
47844;SDS011;33605;48.822;8.796;2023-07-29T03:57:50;1.50;;;1.40;;
47844;SDS011;33605;48.822;8.796;2023-07-29T04:00:16;1.40;;;1.30;;
47844;SDS011;33605;48.822;8.796;2023-07-29T04:02:43;1.80;;;1.70;;
47844;SDS011;33605;48.822;8.796;2023-07-29T04:05:10;2.10;;;1.90;;
47844;SDS011;33605;48.822;8.796;2023-07-29T04:07:37;1.47;;;1.37;;
47844;SDS011;33605;48.822;8.796;2023-07-29T04:10:03;1.50;;;1.40;;
47844;SDS011;33605;48.822;8.796;2023-07-29T04:12:30;2.93;;;1.70;;
47844;SDS011;33605;48.822;8.796;2023-07-29T04:14:56;2.00;;;1.60;;
47844;SDS011;33605;48.822;8.796;2023-07-29T04:17:22;8.80;;;1.70;;
47844;SDS011;33605;48.822;8.796;2023-07-29T04:19:48;2.10;;;1.50;;
47844;SDS011;33605;48.822;8.796;2023-07-29T04:22:15;2.57;;;2.07;;
47844;SDS011;33605;48.822;8.796;2023-07-29T04:24:41;2.67;;;1.80;;
47844;SDS011;33605;48.822;8.796;2023-07-29T04:27:07;3.10;;;1.60;;
47844;SDS011;33605;48.822;8.796;2023-07-29T04:29:33;2.13;;;1.90;;
47844;SDS011;33605;48.822;8.796;2023-07-29T04:32:01;1.80;;;1.50;;
47844;SDS011;33605;48.822;8.796;2023-07-29T04:34:27;1.97;;;1.50;;
47844;SDS011;33605;48.822;8.796;2023-07-29T04:36:53;6.13;;;1.70;;
47844;SDS011;33605;48.822;8.796;2023-07-29T04:39:19;2.20;;;2.00;;
47844;SDS011;33605;48.822;8.796;2023-07-29T04:41:45;9.90;;;1.90;;
47844;SDS011;33605;48.822;8.796;2023-07-29T04:44:11;2.50;;;1.77;;
47844;SDS011;33605;48.822;8.796;2023-07-29T04:46:37;2.30;;;1.47;;
47844;SDS011;33605;48.822;8.796;2023-07-29T04:49:04;1.80;;;1.70;;
47844;SDS011;33605;48.822;8.796;2023-07-29T04:51:30;1.63;;;1.40;;
47844;SDS011;33605;48.822;8.796;2023-07-29T04:53:59;2.17;;;1.60;;
47844;SDS011;33605;48.822;8.796;2023-07-29T04:56:25;2.10;;;1.63;;
47844;SDS011;33605;48.822;8.796;2023-07-29T04:58:51;2.77;;;1.97;;
47844;SDS011;33605;48.822;8.796;2023-07-29T05:01:18;2.00;;;1.70;;
47844;SDS011;33605;48.822;8.796;2023-07-29T05:03:44;1.60;;;1.50;;
47844;SDS011;33605;48.822;8.796;2023-07-29T05:06:10;2.63;;;2.10;;
47844;SDS011;33605;48.822;8.796;2023-07-29T05:08:36;2.00;;;1.80;;
47844;SDS011;33605;48.822;8.796;2023-07-29T05:11:02;1.70;;;1.60;;
47844;SDS011;33605;48.822;8.796;2023-07-29T05:13:28;1.73;;;1.60;;
47844;SDS011;33605;48.822;8.796;2023-07-29T05:15:54;1.77;;;1.50;;
47844;SDS011;33605;48.822;8.796;2023-07-29T05:18:21;4.83;;;1.80;;
47844;SDS011;33605;48.822;8.796;2023-07-29T05:20:47;2.40;;;2.17;;
47844;SDS011;33605;48.822;8.796;2023-07-29T05:23:13;2.07;;;1.60;;
47844;SDS011;33605;48.822;8.796;2023-07-29T05:25:39;2.40;;;1.67;;
47844;SDS011;33605;48.822;8.796;2023-07-29T05:28:05;1.80;;;1.70;;
47844;SDS011;33605;48.822;8.796;2023-07-29T05:30:32;1.70;;;1.60;;
47844;SDS011;33605;48.822;8.796;2023-07-29T05:33:02;1.60;;;1.50;;
47844;SDS011;33605;48.822;8.796;2023-07-29T05:35:28;3.60;;;1.70;;
47844;SDS011;33605;48.822;8.796;2023-07-29T05:37:54;4.67;;;1.80;;
47844;SDS011;33605;48.822;8.796;2023-07-29T05:40:20;4.03;;;1.63;;
47844;SDS011;33605;48.822;8.796;2023-07-29T05:42:46;1.70;;;1.60;;
47844;SDS011;33605;48.822;8.796;2023-07-29T05:45:13;1.70;;;1.60;;
47844;SDS011;33605;48.822;8.796;2023-07-29T05:47:39;1.60;;;1.50;;
47844;SDS011;33605;48.822;8.796;2023-07-29T05:50:05;1.57;;;1.40;;
47844;SDS011;33605;48.822;8.796;2023-07-29T05:52:31;2.03;;;1.80;;
47844;SDS011;33605;48.822;8.796;2023-07-29T05:54:57;1.60;;;1.40;;
47844;SDS011;33605;48.822;8.796;2023-07-29T05:57:23;1.63;;;1.50;;
47844;SDS011;33605;48.822;8.796;2023-07-29T05:59:49;2.37;;;1.50;;
47844;SDS011;33605;48.822;8.796;2023-07-29T06:02:15;2.83;;;1.80;;
47844;SDS011;33605;48.822;8.796;2023-07-29T06:04:41;2.20;;;1.80;;
47844;SDS011;33605;48.822;8.796;2023-07-29T06:07:07;8.23;;;1.63;;
47844;SDS011;33605;48.822;8.796;2023-07-29T06:09:33;1.90;;;1.80;;
47844;SDS011;33605;48.822;8.796;2023-07-29T06:11:59;1.60;;;1.50;;
47844;SDS011;33605;48.822;8.796;2023-07-29T06:14:25;2.07;;;1.80;;
47844;SDS011;33605;48.822;8.796;2023-07-29T06:16:51;3.63;;;2.07;;
47844;SDS011;33605;48.822;8.796;2023-07-29T06:19:18;1.87;;;1.60;;
47844;SDS011;33605;48.822;8.796;2023-07-29T06:21:44;2.00;;;1.80;;
47844;SDS011;33605;48.822;8.796;2023-07-29T06:24:10;5.50;;;2.00;;
47844;SDS011;33605;48.822;8.796;2023-07-29T06:26:36;2.30;;;1.60;;
47844;SDS011;33605;48.822;8.796;2023-07-29T06:29:02;2.00;;;1.90;;
47844;SDS011;33605;48.822;8.796;2023-07-29T06:31:28;2.40;;;1.67;;
47844;SDS011;33605;48.822;8.796;2023-07-29T06:33:54;1.50;;;1.40;;
47844;SDS011;33605;48.822;8.796;2023-07-29T06:36:20;1.97;;;1.70;;
47844;SDS011;33605;48.822;8.796;2023-07-29T06:38:46;1.63;;;1.50;;
47844;SDS011;33605;48.822;8.796;2023-07-29T06:41:12;2.00;;;1.60;;
47844;SDS011;33605;48.822;8.796;2023-07-29T06:43:38;4.50;;;2.20;;
47844;SDS011;33605;48.822;8.796;2023-07-29T06:46:04;2.23;;;1.63;;
47844;SDS011;33605;48.822;8.796;2023-07-29T06:48:30;3.00;;;2.10;;
47844;SDS011;33605;48.822;8.796;2023-07-29T06:50:56;2.23;;;1.93;;
47844;SDS011;33605;48.822;8.796;2023-07-29T06:53:25;2.13;;;1.90;;
47844;SDS011;33605;48.822;8.796;2023-07-29T06:55:51;1.90;;;1.73;;
47844;SDS011;33605;48.822;8.796;2023-07-29T06:58:17;1.90;;;1.80;;
47844;SDS011;33605;48.822;8.796;2023-07-29T07:00:43;1.90;;;1.80;;
47844;SDS011;33605;48.822;8.796;2023-07-29T07:03:10;2.50;;;1.83;;
47844;SDS011;33605;48.822;8.796;2023-07-29T07:05:39;1.73;;;1.57;;
47844;SDS011;33605;48.822;8.796;2023-07-29T07:08:05;3.10;;;1.77;;
47844;SDS011;33605;48.822;8.796;2023-07-29T07:10:31;2.30;;;1.67;;
47844;SDS011;33605;48.822;8.796;2023-07-29T07:12:58;1.87;;;1.77;;
47844;SDS011;33605;48.822;8.796;2023-07-29T07:15:24;2.03;;;1.90;;
47844;SDS011;33605;48.822;8.796;2023-07-29T07:17:51;2.40;;;1.57;;
47844;SDS011;33605;48.822;8.796;2023-07-29T07:20:17;2.20;;;1.40;;
47844;SDS011;33605;48.822;8.796;2023-07-29T07:22:43;1.70;;;1.60;;
47844;SDS011;33605;48.822;8.796;2023-07-29T07:25:09;1.70;;;1.60;;
47844;SDS011;33605;48.822;8.796;2023-07-29T07:27:36;1.80;;;1.70;;
47844;SDS011;33605;48.822;8.796;2023-07-29T07:30:02;2.03;;;1.90;;
47844;SDS011;33605;48.822;8.796;2023-07-29T07:32:28;4.00;;;2.30;;
47844;SDS011;33605;48.822;8.796;2023-07-29T07:34:54;2.33;;;2.00;;
47844;SDS011;33605;48.822;8.796;2023-07-29T07:37:20;2.30;;;1.93;;
47844;SDS011;33605;48.822;8.796;2023-07-29T07:39:46;2.77;;;1.60;;
47844;SDS011;33605;48.822;8.796;2023-07-29T07:42:12;2.00;;;1.80;;
47844;SDS011;33605;48.822;8.796;2023-07-29T07:44:38;1.90;;;1.57;;
47844;SDS011;33605;48.822;8.796;2023-07-29T07:47:04;1.90;;;1.80;;
47844;SDS011;33605;48.822;8.796;2023-07-29T07:49:30;1.50;;;1.40;;
47844;SDS011;33605;48.822;8.796;2023-07-29T07:51:56;1.73;;;1.63;;
47844;SDS011;33605;48.822;8.796;2023-07-29T07:54:23;1.60;;;1.50;;
47844;SDS011;33605;48.822;8.796;2023-07-29T07:56:49;1.83;;;1.70;;
47844;SDS011;33605;48.822;8.796;2023-07-29T07:59:14;1.67;;;1.57;;
47844;SDS011;33605;48.822;8.796;2023-07-29T08:01:41;2.60;;;1.50;;
47844;SDS011;33605;48.822;8.796;2023-07-29T08:04:07;2.00;;;1.80;;
47844;SDS011;33605;48.822;8.796;2023-07-29T08:06:33;1.63;;;1.50;;
47844;SDS011;33605;48.822;8.796;2023-07-29T08:09:00;1.67;;;1.57;;
47844;SDS011;33605;48.822;8.796;2023-07-29T08:11:26;1.70;;;1.50;;
47844;SDS011;33605;48.822;8.796;2023-07-29T08:13:52;1.60;;;1.50;;
47844;SDS011;33605;48.822;8.796;2023-07-29T08:16:18;1.50;;;1.33;;
47844;SDS011;33605;48.822;8.796;2023-07-29T08:18:44;2.40;;;2.10;;
47844;SDS011;33605;48.822;8.796;2023-07-29T08:21:10;5.20;;;1.63;;
47844;SDS011;33605;48.822;8.796;2023-07-29T08:23:36;1.60;;;1.50;;
47844;SDS011;33605;48.822;8.796;2023-07-29T08:26:03;3.80;;;1.53;;
47844;SDS011;33605;48.822;8.796;2023-07-29T08:28:37;2.47;;;1.60;;
47844;SDS011;33605;48.822;8.796;2023-07-29T08:31:03;2.70;;;1.80;;
47844;SDS011;33605;48.822;8.796;2023-07-29T08:33:30;1.67;;;1.57;;
47844;SDS011;33605;48.822;8.796;2023-07-29T08:35:56;1.57;;;1.47;;
47844;SDS011;33605;48.822;8.796;2023-07-29T08:38:23;1.83;;;1.40;;
47844;SDS011;33605;48.822;8.796;2023-07-29T08:43:21;1.57;;;1.47;;
47844;SDS011;33605;48.822;8.796;2023-07-29T08:45:51;1.63;;;1.53;;
47844;SDS011;33605;48.822;8.796;2023-07-29T08:48:18;1.67;;;1.40;;
47844;SDS011;33605;48.822;8.796;2023-07-29T08:50:45;1.60;;;1.50;;
47844;SDS011;33605;48.822;8.796;2023-07-29T08:53:11;2.80;;;1.37;;
47844;SDS011;33605;48.822;8.796;2023-07-29T08:55:38;1.43;;;1.33;;
47844;SDS011;33605;48.822;8.796;2023-07-29T08:58:04;2.93;;;1.60;;
47844;SDS011;33605;48.822;8.796;2023-07-29T09:00:30;1.70;;;1.60;;
47844;SDS011;33605;48.822;8.796;2023-07-29T09:02:57;1.90;;;1.80;;
47844;SDS011;33605;48.822;8.796;2023-07-29T09:05:27;1.80;;;1.57;;
47844;SDS011;33605;48.822;8.796;2023-07-29T09:07:53;1.73;;;1.63;;
47844;SDS011;33605;48.822;8.796;2023-07-29T09:10:21;1.60;;;1.50;;
47844;SDS011;33605;48.822;8.796;2023-07-29T09:12:48;1.40;;;1.30;;
47844;SDS011;33605;48.822;8.796;2023-07-29T09:15:28;2.03;;;1.83;;
47844;SDS011;33605;48.822;8.796;2023-07-29T09:17:55;2.07;;;1.87;;
47844;SDS011;33605;48.822;8.796;2023-07-29T09:20:25;2.07;;;1.90;;
47844;SDS011;33605;48.822;8.796;2023-07-29T09:22:52;1.73;;;1.57;;
47844;SDS011;33605;48.822;8.796;2023-07-29T09:25:22;1.80;;;1.70;;
47844;SDS011;33605;48.822;8.796;2023-07-29T09:27:48;1.77;;;1.50;;
47844;SDS011;33605;48.822;8.796;2023-07-29T09:30:17;1.80;;;1.70;;
47844;SDS011;33605;48.822;8.796;2023-07-29T09:32:44;2.50;;;1.67;;
47844;SDS011;33605;48.822;8.796;2023-07-29T09:35:10;2.80;;;1.57;;
47844;SDS011;33605;48.822;8.796;2023-07-29T09:37:37;1.73;;;1.57;;
47844;SDS011;33605;48.822;8.796;2023-07-29T09:40:04;1.87;;;1.60;;
47844;SDS011;33605;48.822;8.796;2023-07-29T09:42:30;1.60;;;1.50;;
47844;SDS011;33605;48.822;8.796;2023-07-29T09:44:56;1.97;;;1.87;;
47844;SDS011;33605;48.822;8.796;2023-07-29T09:47:22;2.20;;;2.00;;
47844;SDS011;33605;48.822;8.796;2023-07-29T09:49:52;1.60;;;1.50;;
47844;SDS011;33605;48.822;8.796;2023-07-29T09:52:19;2.23;;;1.57;;
47844;SDS011;33605;48.822;8.796;2023-07-29T09:54:45;2.50;;;1.37;;
47844;SDS011;33605;48.822;8.796;2023-07-29T09:57:16;2.13;;;1.40;;
47844;SDS011;33605;48.822;8.796;2023-07-29T09:59:42;1.63;;;1.53;;
47844;SDS011;33605;48.822;8.796;2023-07-29T10:02:10;1.67;;;1.40;;
47844;SDS011;33605;48.822;8.796;2023-07-29T10:04:40;1.40;;;1.30;;
47844;SDS011;33605;48.822;8.796;2023-07-29T10:07:07;2.60;;;1.40;;
47844;SDS011;33605;48.822;8.796;2023-07-29T10:09:34;2.10;;;1.60;;
47844;SDS011;33605;48.822;8.796;2023-07-29T10:12:00;1.47;;;1.37;;
47844;SDS011;33605;48.822;8.796;2023-07-29T10:14:27;1.47;;;1.37;;
47844;SDS011;33605;48.822;8.796;2023-07-29T10:16:54;1.83;;;1.43;;
47844;SDS011;33605;48.822;8.796;2023-07-29T10:19:21;1.33;;;1.23;;
47844;SDS011;33605;48.822;8.796;2023-07-29T10:21:47;1.30;;;1.20;;
47844;SDS011;33605;48.822;8.796;2023-07-29T10:24:15;3.37;;;1.37;;
47844;SDS011;33605;48.822;8.796;2023-07-29T10:26:47;1.67;;;1.53;;
47844;SDS011;33605;48.822;8.796;2023-07-29T10:29:18;1.37;;;1.27;;
47844;SDS011;33605;48.822;8.796;2023-07-29T10:31:48;1.50;;;1.40;;
47844;SDS011;33605;48.822;8.796;2023-07-29T10:34:14;2.50;;;1.53;;
47844;SDS011;33605;48.822;8.796;2023-07-29T10:36:40;1.50;;;1.37;;
47844;SDS011;33605;48.822;8.796;2023-07-29T10:39:07;1.53;;;1.43;;
47844;SDS011;33605;48.822;8.796;2023-07-29T10:41:55;5.13;;;1.60;;
47844;SDS011;33605;48.822;8.796;2023-07-29T10:47:13;1.70;;;1.60;;
47844;SDS011;33605;48.822;8.796;2023-07-29T10:49:43;1.53;;;1.43;;
47844;SDS011;33605;48.822;8.796;2023-07-29T10:52:12;1.40;;;1.30;;
47844;SDS011;33605;48.822;8.796;2023-07-29T10:54:46;1.67;;;1.47;;
47844;SDS011;33605;48.822;8.796;2023-07-29T10:57:16;1.50;;;1.40;;
47844;SDS011;33605;48.822;8.796;2023-07-29T10:59:56;2.10;;;1.73;;
47844;SDS011;33605;48.822;8.796;2023-07-29T11:02:28;1.67;;;1.57;;
47844;SDS011;33605;48.822;8.796;2023-07-29T11:04:54;1.80;;;1.70;;
47844;SDS011;33605;48.822;8.796;2023-07-29T11:07:21;1.80;;;1.70;;
47844;SDS011;33605;48.822;8.796;2023-07-29T11:09:54;2.47;;;1.40;;
47844;SDS011;33605;48.822;8.796;2023-07-29T11:17:34;1.60;;;1.50;;
47844;SDS011;33605;48.822;8.796;2023-07-29T11:20:01;1.40;;;1.30;;
47844;SDS011;33605;48.822;8.796;2023-07-29T11:22:28;1.60;;;1.50;;
47844;SDS011;33605;48.822;8.796;2023-07-29T11:24:54;2.00;;;1.70;;
47844;SDS011;33605;48.822;8.796;2023-07-29T11:27:20;1.80;;;1.70;;
47844;SDS011;33605;48.822;8.796;2023-07-29T11:29:46;1.83;;;1.43;;
47844;SDS011;33605;48.822;8.796;2023-07-29T11:32:12;1.70;;;1.60;;
47844;SDS011;33605;48.822;8.796;2023-07-29T11:34:39;2.87;;;1.70;;
47844;SDS011;33605;48.822;8.796;2023-07-29T11:37:05;2.00;;;1.70;;
47844;SDS011;33605;48.822;8.796;2023-07-29T11:39:39;5.30;;;1.57;;
47844;SDS011;33605;48.822;8.796;2023-07-29T11:42:06;2.10;;;1.60;;
47844;SDS011;33605;48.822;8.796;2023-07-29T11:44:32;2.43;;;2.07;;
47844;SDS011;33605;48.822;8.796;2023-07-29T11:46:58;1.90;;;1.70;;
47844;SDS011;33605;48.822;8.796;2023-07-29T11:49:24;2.00;;;1.70;;
47844;SDS011;33605;48.822;8.796;2023-07-29T11:51:50;2.37;;;2.17;;
47844;SDS011;33605;48.822;8.796;2023-07-29T11:54:16;2.60;;;1.80;;
47844;SDS011;33605;48.822;8.796;2023-07-29T11:56:46;1.93;;;1.83;;
47844;SDS011;33605;48.822;8.796;2023-07-29T11:59:12;3.30;;;1.97;;
47844;SDS011;33605;48.822;8.796;2023-07-29T12:01:38;2.10;;;1.80;;
47844;SDS011;33605;48.822;8.796;2023-07-29T12:04:04;2.53;;;2.30;;
47844;SDS011;33605;48.822;8.796;2023-07-29T12:06:30;3.23;;;2.00;;
47844;SDS011;33605;48.822;8.796;2023-07-29T12:08:56;2.30;;;2.17;;
47844;SDS011;33605;48.822;8.796;2023-07-29T12:11:22;2.00;;;1.83;;
47844;SDS011;33605;48.822;8.796;2023-07-29T12:13:48;2.00;;;1.80;;
47844;SDS011;33605;48.822;8.796;2023-07-29T12:16:17;2.40;;;2.20;;
47844;SDS011;33605;48.822;8.796;2023-07-29T12:18:44;2.30;;;2.10;;
47844;SDS011;33605;48.822;8.796;2023-07-29T12:21:10;2.30;;;2.10;;
47844;SDS011;33605;48.822;8.796;2023-07-29T12:23:36;2.27;;;2.07;;
47844;SDS011;33605;48.822;8.796;2023-07-29T12:26:02;2.03;;;1.90;;
47844;SDS011;33605;48.822;8.796;2023-07-29T12:28:28;2.70;;;2.10;;
47844;SDS011;33605;48.822;8.796;2023-07-29T12:30:57;2.60;;;2.40;;
47844;SDS011;33605;48.822;8.796;2023-07-29T12:33:33;5.83;;;2.20;;
47844;SDS011;33605;48.822;8.796;2023-07-29T12:35:59;2.23;;;2.03;;
47844;SDS011;33605;48.822;8.796;2023-07-29T12:38:25;1.90;;;1.70;;
47844;SDS011;33605;48.822;8.796;2023-07-29T12:40:52;2.10;;;1.90;;
47844;SDS011;33605;48.822;8.796;2023-07-29T12:43:18;2.17;;;1.97;;
47844;SDS011;33605;48.822;8.796;2023-07-29T12:45:44;2.73;;;2.40;;
47844;SDS011;33605;48.822;8.796;2023-07-29T12:48:10;2.67;;;2.40;;
47844;SDS011;33605;48.822;8.796;2023-07-29T12:50:36;4.53;;;2.33;;
47844;SDS011;33605;48.822;8.796;2023-07-29T12:53:04;2.50;;;2.20;;
47844;SDS011;33605;48.822;8.796;2023-07-29T12:55:30;1.87;;;1.73;;
47844;SDS011;33605;48.822;8.796;2023-07-29T12:57:56;1.87;;;1.67;;
47844;SDS011;33605;48.822;8.796;2023-07-29T13:00:23;4.40;;;2.13;;
47844;SDS011;33605;48.822;8.796;2023-07-29T13:02:49;2.90;;;2.30;;
47844;SDS011;33605;48.822;8.796;2023-07-29T13:05:15;2.10;;;1.80;;
47844;SDS011;33605;48.822;8.796;2023-07-29T13:07:41;2.30;;;2.10;;
47844;SDS011;33605;48.822;8.796;2023-07-29T13:10:08;2.20;;;2.00;;
47844;SDS011;33605;48.822;8.796;2023-07-29T13:12:34;4.03;;;2.00;;
47844;SDS011;33605;48.822;8.796;2023-07-29T13:15:00;2.37;;;2.10;;
47844;SDS011;33605;48.822;8.796;2023-07-29T13:17:26;2.20;;;1.90;;
47844;SDS011;33605;48.822;8.796;2023-07-29T13:19:52;1.90;;;1.73;;
47844;SDS011;33605;48.822;8.796;2023-07-29T13:22:19;2.30;;;2.10;;
47844;SDS011;33605;48.822;8.796;2023-07-29T13:24:49;2.30;;;2.10;;
47844;SDS011;33605;48.822;8.796;2023-07-29T13:27:15;2.57;;;2.03;;
47844;SDS011;33605;48.822;8.796;2023-07-29T13:29:41;2.27;;;2.03;;
47844;SDS011;33605;48.822;8.796;2023-07-29T13:32:08;2.23;;;1.90;;
47844;SDS011;33605;48.822;8.796;2023-07-29T13:34:34;2.20;;;2.00;;
47844;SDS011;33605;48.822;8.796;2023-07-29T13:37:00;2.73;;;2.00;;
47844;SDS011;33605;48.822;8.796;2023-07-29T13:39:26;1.80;;;1.70;;
47844;SDS011;33605;48.822;8.796;2023-07-29T13:41:52;3.03;;;2.10;;
47844;SDS011;33605;48.822;8.796;2023-07-29T13:44:18;2.20;;;2.00;;
47844;SDS011;33605;48.822;8.796;2023-07-29T13:46:44;1.73;;;1.63;;
47844;SDS011;33605;48.822;8.796;2023-07-29T13:49:10;1.90;;;1.80;;
47844;SDS011;33605;48.822;8.796;2023-07-29T13:51:36;2.23;;;2.03;;
47844;SDS011;33605;48.822;8.796;2023-07-29T13:54:02;2.10;;;1.90;;
47844;SDS011;33605;48.822;8.796;2023-07-29T13:56:28;2.00;;;1.87;;
47844;SDS011;33605;48.822;8.796;2023-07-29T13:58:54;2.03;;;1.83;;
47844;SDS011;33605;48.822;8.796;2023-07-29T14:01:20;1.90;;;1.60;;
47844;SDS011;33605;48.822;8.796;2023-07-29T14:03:46;1.90;;;1.80;;
47844;SDS011;33605;48.822;8.796;2023-07-29T14:06:12;2.33;;;2.13;;
47844;SDS011;33605;48.822;8.796;2023-07-29T14:08:38;2.20;;;2.00;;
47844;SDS011;33605;48.822;8.796;2023-07-29T14:11:06;2.30;;;2.07;;
47844;SDS011;33605;48.822;8.796;2023-07-29T14:13:32;2.40;;;2.20;;
47844;SDS011;33605;48.822;8.796;2023-07-29T14:16:00;2.33;;;2.13;;
47844;SDS011;33605;48.822;8.796;2023-07-29T14:18:27;2.30;;;2.10;;
47844;SDS011;33605;48.822;8.796;2023-07-29T14:20:53;2.50;;;2.20;;
47844;SDS011;33605;48.822;8.796;2023-07-29T14:23:19;2.30;;;2.10;;
47844;SDS011;33605;48.822;8.796;2023-07-29T14:25:45;2.03;;;1.93;;
47844;SDS011;33605;48.822;8.796;2023-07-29T14:28:12;6.03;;;2.03;;
47844;SDS011;33605;48.822;8.796;2023-07-29T14:30:38;2.17;;;1.97;;
47844;SDS011;33605;48.822;8.796;2023-07-29T14:33:06;2.80;;;2.33;;
47844;SDS011;33605;48.822;8.796;2023-07-29T14:35:31;2.30;;;2.10;;
47844;SDS011;33605;48.822;8.796;2023-07-29T14:37:57;1.83;;;1.73;;
47844;SDS011;33605;48.822;8.796;2023-07-29T14:40:23;2.10;;;1.80;;
47844;SDS011;33605;48.822;8.796;2023-07-29T14:42:49;3.23;;;2.10;;
47844;SDS011;33605;48.822;8.796;2023-07-29T14:45:15;3.70;;;2.20;;
47844;SDS011;33605;48.822;8.796;2023-07-29T14:47:43;2.20;;;1.97;;
47844;SDS011;33605;48.822;8.796;2023-07-29T14:50:09;7.43;;;1.97;;
47844;SDS011;33605;48.822;8.796;2023-07-29T14:52:35;3.57;;;2.00;;
47844;SDS011;33605;48.822;8.796;2023-07-29T14:55:01;2.30;;;2.10;;
47844;SDS011;33605;48.822;8.796;2023-07-29T14:57:27;2.40;;;2.20;;
47844;SDS011;33605;48.822;8.796;2023-07-29T14:59:53;2.10;;;1.90;;